Time;durP1;ratioP1;P1;durP2;ratioP2;P2;SDS_P1;SDS_P2;PMS_P1;PMS_P2;Temp;Humidity;BMP_temperature;BMP_pressure;BME280_temperature;BME280_humidity;BME280_pressure;Samples;Min_cycle;Max_cycle;Signal;HPM_P1;HPM_P2
2024/01/25 00:01:10;;;;;;;60.03;11.70;;;10.10;99.90;;;;;;5074979;28;20616;-75
2024/01/25 00:03:35;;;;;;;56.07;10.63;;;10.00;99.90;;;;;;5075169;28;20559;-75
2024/01/25 00:06:01;;;;;;;50.33;9.97;;;10.00;99.90;;;;;;5075069;28;20177;-75
2024/01/25 00:08:27;;;;;;;50.00;10.33;;;9.90;99.90;;;;;;5075082;28;20532;-75
2024/01/25 00:10:52;;;;;;;51.27;10.00;;;9.80;99.90;;;;;;5074887;28;20168;-75
2024/01/25 00:13:18;;;;;;;52.23;10.37;;;9.80;99.90;;;;;;5074980;28;20172;-75
2024/01/25 00:15:43;;;;;;;47.03;9.20;;;9.80;99.90;;;;;;5074499;28;20168;-75
2024/01/25 00:18:09;;;;;;;53.47;10.67;;;9.70;99.90;;;;;;5074849;28;20177;-75
2024/01/25 00:20:35;;;;;;;43.43;9.70;;;9.70;99.90;;;;;;5075042;28;20175;-75
2024/01/25 00:23:00;;;;;;;47.63;8.90;;;9.60;99.90;;;;;;5074867;28;20219;-73
2024/01/25 00:25:26;;;;;;;55.43;10.17;;;9.60;99.90;;;;;;5074844;28;20639;-74
2024/01/25 00:27:52;;;;;;;53.40;10.10;;;9.60;99.90;;;;;;5074746;28;20177;-74
2024/01/25 00:30:18;;;;;;;50.63;9.97;;;9.50;99.90;;;;;;5073988;28;20213;-74
2024/01/25 00:32:43;;;;;;;56.83;9.87;;;9.50;99.90;;;;;;5073254;28;20184;-74
2024/01/25 00:35:10;;;;;;;54.03;10.43;;;9.50;99.90;;;;;;5074591;28;20169;-75
2024/01/25 00:37:37;;;;;;;52.10;10.10;;;9.50;99.90;;;;;;5073866;28;20168;-75
2024/01/25 00:40:03;;;;;;;52.10;10.50;;;9.40;99.90;;;;;;5074495;28;20195;-75
2024/01/25 00:42:30;;;;;;;51.90;9.77;;;9.40;99.90;;;;;;5074415;28;20341;-74
2024/01/25 00:44:56;;;;;;;59.17;10.00;;;9.30;99.90;;;;;;5074167;28;20260;-74
2024/01/25 00:47:22;;;;;;;49.40;9.77;;;9.30;99.90;;;;;;5073903;28;20569;-74
2024/01/25 00:49:48;;;;;;;59.10;10.57;;;9.20;99.90;;;;;;5074258;28;20248;-73
2024/01/25 00:52:14;;;;;;;60.37;9.23;;;9.20;99.90;;;;;;5074308;28;20204;-72
2024/01/25 00:54:40;;;;;;;50.43;9.93;;;9.20;99.90;;;;;;5072829;28;20606;-74
2024/01/25 00:57:06;;;;;;;57.00;10.47;;;9.20;99.90;;;;;;5074026;28;20604;-75
2024/01/25 00:59:32;;;;;;;49.30;9.97;;;9.20;99.90;;;;;;5073792;28;20184;-74
2024/01/25 01:02:01;;;;;;;62.57;10.73;;;9.20;99.90;;;;;;5073583;28;20172;-74
2024/01/25 01:04:27;;;;;;;62.10;9.97;;;9.10;99.90;;;;;;5074092;28;20180;-75
2024/01/25 01:06:53;;;;;;;58.23;10.87;;;9.10;99.90;;;;;;5073945;28;20169;-75
2024/01/25 01:09:19;;;;;;;62.83;10.70;;;9.20;99.90;;;;;;5073935;28;20176;-75
2024/01/25 01:11:44;;;;;;;47.53;9.47;;;9.10;99.90;;;;;;5072748;28;20240;-75
2024/01/25 01:14:10;;;;;;;58.00;9.37;;;9.10;99.90;;;;;;5073604;28;20180;-74
2024/01/25 01:16:36;;;;;;;57.97;10.47;;;9.10;99.90;;;;;;5072451;28;20206;-75
2024/01/25 01:19:05;;;;;;;57.43;10.23;;;9.10;99.90;;;;;;5073826;28;20177;-75
2024/01/25 01:21:32;;;;;;;52.80;9.97;;;9.00;99.90;;;;;;5072436;28;20179;-75
2024/01/25 01:23:57;;;;;;;52.30;10.53;;;8.90;99.90;;;;;;5072494;28;20215;-75
2024/01/25 01:26:23;;;;;;;58.50;10.57;;;9.00;99.90;;;;;;5073238;28;20164;-74
2024/01/25 01:28:48;;;;;;;59.57;10.27;;;8.90;99.90;;;;;;5073560;28;20172;-74
2024/01/25 01:31:14;;;;;;;51.93;9.83;;;8.80;99.90;;;;;;5073247;28;20216;-75
2024/01/25 01:33:39;;;;;;;59.80;10.13;;;8.80;99.90;;;;;;5073685;28;20169;-73
2024/01/25 01:36:25;;;;;;;60.90;10.70;;;8.80;99.90;;;;;;5073468;28;20172;-75
2024/01/25 01:38:50;;;;;;;52.17;10.37;;;8.80;99.90;;;;;;5073647;28;20175;-73
2024/01/25 01:41:16;;;;;;;53.77;9.53;;;8.80;99.90;;;;;;5073155;28;20636;-74
2024/01/25 01:43:41;;;;;;;47.80;9.40;;;8.80;99.90;;;;;;5073144;28;20208;-74
2024/01/25 01:46:11;;;;;;;59.53;9.53;;;8.80;99.90;;;;;;5073439;28;20195;-74
2024/01/25 01:48:39;;;;;;;52.80;9.90;;;8.70;99.90;;;;;;5071594;28;20173;-73
2024/01/25 01:51:05;;;;;;;60.70;10.00;;;8.80;99.90;;;;;;5073181;28;20173;-74
2024/01/25 01:53:32;;;;;;;60.53;10.23;;;8.70;99.90;;;;;;5071825;28;20258;-73
2024/01/25 01:55:58;;;;;;;61.13;9.63;;;8.70;99.90;;;;;;5071502;28;20168;-75
2024/01/25 01:58:25;;;;;;;55.47;9.83;;;8.70;99.90;;;;;;5073356;28;20685;-73
2024/01/25 02:00:50;;;;;;;49.77;9.43;;;8.70;99.90;;;;;;5073259;28;20188;-74
2024/01/25 02:03:16;;;;;;;48.43;9.03;;;8.60;99.90;;;;;;5071690;28;20667;-74
2024/01/25 02:05:42;;;;;;;43.67;9.63;;;8.60;99.90;;;;;;5073032;28;20514;-74
2024/01/25 02:08:08;;;;;;;49.03;9.90;;;8.60;99.90;;;;;;5073008;28;20237;-75
2024/01/25 02:10:34;;;;;;;50.23;10.03;;;8.60;99.90;;;;;;5072637;28;20177;-75
2024/01/25 02:12:59;;;;;;;50.93;10.00;;;8.60;99.90;;;;;;5073073;28;20655;-74
2024/01/25 02:15:25;;;;;;;54.03;9.47;;;8.50;99.90;;;;;;5073131;28;20168;-74
2024/01/25 02:17:51;;;;;;;43.40;8.83;;;8.50;99.90;;;;;;5072940;28;20235;-74
2024/01/25 02:20:18;;;;;;;52.13;9.63;;;8.50;99.90;;;;;;5073199;28;20175;-75
2024/01/25 02:22:44;;;;;;;54.97;9.80;;;8.50;99.90;;;;;;5072968;28;20208;-75
2024/01/25 02:25:09;;;;;;;59.23;10.00;;;8.50;99.90;;;;;;5072498;28;20223;-74
2024/01/25 02:27:38;;;;;;;57.33;9.53;;;8.40;99.90;;;;;;5071748;28;20263;-74
2024/01/25 02:30:07;;;;;;;58.60;10.20;;;8.40;99.90;;;;;;5071426;28;20621;-73
2024/01/25 02:32:33;;;;;;;42.83;8.90;;;8.40;99.90;;;;;;5072958;28;20173;-74
2024/01/25 02:34:59;;;;;;;53.10;9.87;;;8.40;99.90;;;;;;5071693;28;20506;-75
2024/01/25 02:37:25;;;;;;;57.60;10.27;;;8.40;99.90;;;;;;5072667;28;20171;-74
2024/01/25 02:39:51;;;;;;;49.57;9.47;;;8.30;99.90;;;;;;5071134;28;20655;-75
2024/01/25 02:42:17;;;;;;;47.47;8.97;;;8.20;99.90;;;;;;5072900;28;20200;-74
2024/01/25 02:44:43;;;;;;;50.93;9.90;;;8.20;99.90;;;;;;5072823;28;20226;-75
2024/01/25 02:47:09;;;;;;;53.30;10.33;;;8.20;99.90;;;;;;5072816;28;20315;-75
2024/01/25 02:49:34;;;;;;;64.60;9.67;;;8.20;99.90;;;;;;5072743;28;20207;-75
2024/01/25 02:52:00;;;;;;;52.43;9.40;;;8.10;99.90;;;;;;5072658;28;20643;-75
2024/01/25 02:54:26;;;;;;;63.80;10.40;;;8.10;99.90;;;;;;5072202;28;20184;-75
2024/01/25 02:56:51;;;;;;;62.33;10.23;;;8.00;99.90;;;;;;5072633;28;20168;-74
2024/01/25 02:59:17;;;;;;;53.23;9.90;;;8.00;99.90;;;;;;5072653;28;20195;-76
2024/01/25 03:01:44;;;;;;;46.40;8.87;;;7.90;99.90;;;;;;5075404;28;20226;-75
2024/01/25 03:04:10;;;;;;;56.43;10.13;;;7.90;99.90;;;;;;5076249;28;20204;-75
2024/01/25 03:06:36;;;;;;;61.03;10.33;;;7.90;99.90;;;;;;5075005;28;20259;-76
2024/01/25 03:09:04;;;;;;;48.67;9.03;;;7.80;99.90;;;;;;5075719;28;20199;-76
2024/01/25 03:11:30;;;;;;;51.03;8.90;;;7.80;99.90;;;;;;5076378;28;20620;-75
2024/01/25 03:13:55;;;;;;;51.47;9.60;;;7.80;99.90;;;;;;5076258;28;20218;-75
2024/01/25 03:16:21;;;;;;;58.00;10.40;;;7.80;99.90;;;;;;5075967;28;20222;-75
2024/01/25 03:18:46;;;;;;;54.17;9.20;;;7.80;99.90;;;;;;5058236;28;20188;-75
2024/01/25 03:21:12;;;;;;;50.87;9.27;;;7.80;99.90;;;;;;5076040;28;20211;-75
2024/01/25 03:23:38;;;;;;;39.70;8.77;;;7.70;99.90;;;;;;5075567;28;20208;-74
2024/01/25 03:26:04;;;;;;;48.40;9.20;;;7.80;99.90;;;;;;5076025;28;20156;-74
2024/01/25 03:28:29;;;;;;;56.97;9.57;;;7.70;99.90;;;;;;5075820;28;20165;-75
2024/01/25 03:30:55;;;;;;;47.40;9.60;;;7.70;99.90;;;;;;5075537;28;20217;-74
2024/01/25 03:33:20;;;;;;;53.60;9.93;;;7.70;99.90;;;;;;5075838;28;20196;-74
2024/01/25 03:35:46;;;;;;;52.87;9.47;;;7.70;99.90;;;;;;5075864;28;20176;-73
2024/01/25 03:38:13;;;;;;;48.10;9.83;;;7.60;99.90;;;;;;5075194;28;20180;-75
2024/01/25 03:40:39;;;;;;;58.43;9.00;;;7.60;99.90;;;;;;5074089;28;20226;-74
2024/01/25 03:43:05;;;;;;;53.37;9.80;;;7.60;99.90;;;;;;5075650;28;20208;-75
2024/01/25 03:45:32;;;;;;;58.87;10.33;;;7.60;99.90;;;;;;5075615;28;20195;-75
2024/01/25 03:47:58;;;;;;;56.73;10.27;;;7.60;99.90;;;;;;5075435;28;20165;-74
2024/01/25 03:50:23;;;;;;;50.93;10.37;;;7.70;99.90;;;;;;5074289;28;20685;-74
2024/01/25 03:52:49;;;;;;;60.87;10.00;;;7.60;99.90;;;;;;5074893;28;20652;-73
2024/01/25 03:55:14;;;;;;;52.00;10.03;;;7.50;99.90;;;;;;5073671;28;20218;-73
2024/01/25 03:57:41;;;;;;;49.60;9.63;;;7.60;99.90;;;;;;5075128;28;20203;-72
2024/01/25 04:00:07;;;;;;;54.03;10.20;;;7.60;99.90;;;;;;5075391;28;20172;-74
2024/01/25 04:02:33;;;;;;;46.57;9.73;;;7.60;99.90;;;;;;5074071;28;20200;-75
2024/01/25 04:04:59;;;;;;;58.00;10.67;;;7.60;99.90;;;;;;5074970;28;20179;-73
2024/01/25 04:07:24;;;;;;;53.00;9.40;;;7.60;99.90;;;;;;5074603;28;20530;-75
2024/01/25 04:09:50;;;;;;;58.47;10.40;;;7.60;99.90;;;;;;5074979;28;20169;-74
2024/01/25 04:12:16;;;;;;;66.60;10.63;;;7.60;99.90;;;;;;5074029;28;20620;-74
2024/01/25 04:14:41;;;;;;;54.63;11.50;;;7.50;99.90;;;;;;5074879;28;20183;-74
2024/01/25 04:17:07;;;;;;;72.20;11.40;;;7.60;99.90;;;;;;5074843;28;20173;-73
2024/01/25 04:19:33;;;;;;;51.97;9.93;;;7.60;99.90;;;;;;5074641;28;20620;-73
2024/01/25 04:21:58;;;;;;;52.37;9.30;;;7.60;99.90;;;;;;5074130;28;20172;-74
2024/01/25 04:24:24;;;;;;;52.63;9.90;;;7.50;99.90;;;;;;5074683;28;20204;-74
2024/01/25 04:26:49;;;;;;;47.23;9.73;;;7.50;99.90;;;;;;5074364;28;20181;-73
2024/01/25 04:29:15;;;;;;;46.60;9.23;;;7.50;99.90;;;;;;5074580;28;20184;-73
2024/01/25 04:31:45;;;;;;;46.17;9.60;;;7.50;99.90;;;;;;5074479;28;20220;-74
2024/01/25 04:34:12;;;;;;;50.70;9.67;;;7.50;99.90;;;;;;5074303;28;20171;-75
2024/01/25 04:36:37;;;;;;;54.00;9.83;;;7.60;99.90;;;;;;5073798;28;20598;-73
2024/01/25 04:39:03;;;;;;;56.00;10.90;;;7.50;99.90;;;;;;5074257;28;20251;-73
2024/01/25 04:41:29;;;;;;;56.37;10.23;;;7.60;99.90;;;;;;5074026;28;20203;-73
2024/01/25 04:43:54;;;;;;;55.00;9.50;;;7.60;99.90;;;;;;5074147;28;20270;-73
2024/01/25 04:46:20;;;;;;;56.33;10.57;;;7.60;99.90;;;;;;5072709;28;20200;-75
2024/01/25 04:48:46;;;;;;;46.97;9.00;;;7.60;99.90;;;;;;5073914;28;20255;-73
2024/01/25 04:51:16;;;;;;;66.00;10.97;;;7.60;99.90;;;;;;5073438;28;20172;-73
2024/01/25 04:53:42;;;;;;;51.80;9.20;;;7.60;99.90;;;;;;5073583;28;20214;-73
2024/01/25 04:56:08;;;;;;;57.07;10.00;;;7.60;99.90;;;;;;5073648;28;20628;-74
2024/01/25 04:58:33;;;;;;;48.77;9.43;;;7.60;99.90;;;;;;5073914;28;20168;-74
2024/01/25 05:00:59;;;;;;;46.57;9.40;;;7.60;99.90;;;;;;5073710;28;20271;-74
2024/01/25 05:03:25;;;;;;;48.13;9.37;;;7.60;99.90;;;;;;5073799;28;20208;-74
2024/01/25 05:05:51;;;;;;;57.83;9.97;;;7.60;99.90;;;;;;5071794;28;20177;-74
2024/01/25 05:08:16;;;;;;;64.90;10.70;;;7.70;99.90;;;;;;5073628;28;20226;-74
2024/01/25 05:10:42;;;;;;;57.23;10.70;;;7.60;99.90;;;;;;5073614;28;20584;-74
2024/01/25 05:13:08;;;;;;;53.03;10.13;;;7.60;99.90;;;;;;5073158;28;20183;-75
2024/01/25 05:15:33;;;;;;;50.53;10.30;;;7.70;99.90;;;;;;5073513;28;20180;-75
2024/01/25 05:17:59;;;;;;;57.80;10.27;;;7.60;99.90;;;;;;5073594;28;20172;-75
2024/01/25 05:20:31;;;;;;;59.10;10.10;;;7.70;99.90;;;;;;5071695;28;20168;-75
2024/01/25 05:22:57;;;;;;;57.17;10.77;;;7.70;99.90;;;;;;5073244;28;20200;-75
2024/01/25 05:25:23;;;;;;;63.23;11.03;;;7.60;99.90;;;;;;5073344;28;20259;-74
2024/01/25 05:27:48;;;;;;;48.60;9.83;;;7.70;99.90;;;;;;5073103;28;20635;-76
2024/01/25 05:30:14;;;;;;;53.37;10.77;;;7.70;99.90;;;;;;5070835;28;20731;-75
2024/01/25 05:32:39;;;;;;;50.13;9.70;;;7.60;99.90;;;;;;5073156;28;20184;-75
2024/01/25 05:35:06;;;;;;;47.20;10.13;;;7.70;99.90;;;;;;5072590;28;20165;-75
2024/01/25 05:37:32;;;;;;;66.87;11.03;;;7.70;99.90;;;;;;5071497;28;20259;-75
2024/01/25 05:39:57;;;;;;;58.07;11.10;;;7.70;99.90;;;;;;5073121;28;20176;-75
2024/01/25 05:42:23;;;;;;;64.97;10.93;;;7.70;99.90;;;;;;5072676;28;20204;-75
2024/01/25 05:44:49;;;;;;;58.33;10.20;;;7.60;99.90;;;;;;5073281;28;20581;-74
2024/01/25 05:47:14;;;;;;;53.07;9.97;;;7.70;99.90;;;;;;5072902;28;20195;-75
2024/01/25 05:49:40;;;;;;;62.60;10.67;;;7.70;99.90;;;;;;5072429;28;20173;-74
2024/01/25 05:52:06;;;;;;;51.20;9.97;;;7.60;99.90;;;;;;5071957;28;20169;-75
2024/01/25 05:54:31;;;;;;;67.67;10.60;;;7.70;99.90;;;;;;5072498;28;20207;-76
2024/01/25 05:56:57;;;;;;;49.27;9.67;;;7.70;99.90;;;;;;5072265;28;20172;-75
2024/01/25 05:59:22;;;;;;;54.43;10.93;;;7.60;99.90;;;;;;5072804;28;20259;-75
2024/01/25 06:01:48;;;;;;;55.27;10.23;;;7.60;99.90;;;;;;5072236;28;20181;-76
2024/01/25 06:04:13;;;;;;;53.87;11.07;;;7.60;99.90;;;;;;5071770;28;20265;-74
2024/01/25 06:06:39;;;;;;;62.77;12.00;;;7.60;99.90;;;;;;5072276;28;20217;-75
2024/01/25 06:09:05;;;;;;;49.77;10.90;;;7.60;99.90;;;;;;5070985;28;20272;-75
2024/01/25 06:11:33;;;;;;;65.57;11.20;;;7.60;99.90;;;;;;5072360;28;20531;-74
2024/01/25 06:13:58;;;;;;;54.93;11.23;;;7.60;99.90;;;;;;5072408;28;20649;-75
2024/01/25 06:16:24;;;;;;;60.63;11.53;;;7.70;99.90;;;;;;5071619;28;20272;-75
2024/01/25 06:18:49;;;;;;;62.50;11.60;;;7.80;99.90;;;;;;5071988;28;20619;-76
2024/01/25 06:21:15;;;;;;;64.17;11.13;;;7.70;99.90;;;;;;5072402;28;20279;-74
2024/01/25 06:23:40;;;;;;;65.83;12.00;;;7.70;99.90;;;;;;5072262;28;20664;-75
2024/01/25 06:26:06;;;;;;;68.17;11.73;;;7.70;99.90;;;;;;5072062;28;20533;-77
2024/01/25 06:28:32;;;;;;;67.97;12.23;;;7.60;99.90;;;;;;5071721;28;20165;-77
2024/01/25 06:30:57;;;;;;;57.90;11.90;;;7.60;99.90;;;;;;5071019;28;20220;-76
2024/01/25 06:33:23;;;;;;;58.10;12.13;;;7.60;99.90;;;;;;5071304;28;20168;-76
2024/01/25 06:35:48;;;;;;;66.73;12.90;;;7.60;99.90;;;;;;5073772;28;20177;-75
2024/01/25 06:38:14;;;;;;;49.73;11.67;;;7.60;99.90;;;;;;5075886;28;20172;-76
2024/01/25 06:40:39;;;;;;;64.87;13.37;;;7.70;99.90;;;;;;5075489;28;20165;-76
2024/01/25 06:43:05;;;;;;;64.43;13.00;;;7.60;99.90;;;;;;5074753;28;20259;-76
2024/01/25 06:45:30;;;;;;;58.13;12.50;;;7.70;99.90;;;;;;5074581;28;20190;-76
2024/01/25 06:47:56;;;;;;;55.13;12.97;;;7.70;99.90;;;;;;5075852;28;20180;-76
2024/01/25 06:50:22;;;;;;;65.93;12.93;;;7.70;99.90;;;;;;5075171;28;20675;-75
2024/01/25 06:52:48;;;;;;;65.00;12.83;;;7.70;99.90;;;;;;5075352;28;20245;-76
2024/01/25 06:55:13;;;;;;;55.13;13.03;;;7.80;99.90;;;;;;5075431;28;20535;-75
2024/01/25 06:57:39;;;;;;;72.23;14.27;;;7.80;99.90;;;;;;5075273;28;20177;-74
2024/01/25 07:00:06;;;;;;;57.63;12.63;;;7.80;99.90;;;;;;5073535;28;20176;-76
2024/01/25 07:02:32;;;;;;;61.60;13.13;;;7.70;99.90;;;;;;5075645;28;20203;-74
2024/01/25 07:04:58;;;;;;;61.23;11.93;;;7.60;99.90;;;;;;5074807;28;20226;-76
2024/01/25 07:07:23;;;;;;;68.40;14.83;;;7.80;99.90;;;;;;5074871;28;20173;-75
2024/01/25 07:09:49;;;;;;;67.53;14.53;;;7.80;99.90;;;;;;5074995;28;20263;-76
2024/01/25 07:12:14;;;;;;;48.87;14.43;;;7.80;99.90;;;;;;5074763;28;20184;-75
2024/01/25 07:14:40;;;;;;;65.40;15.87;;;7.80;99.90;;;;;;5073870;28;20168;-75
2024/01/25 07:17:05;;;;;;;64.53;15.47;;;7.70;99.90;;;;;;5074720;28;20179;-74
2024/01/25 07:19:31;;;;;;;66.73;15.73;;;7.70;99.90;;;;;;5075178;28;20176;-74
2024/01/25 07:21:57;;;;;;;64.33;15.87;;;7.70;99.90;;;;;;5074923;28;20302;-76
2024/01/25 07:24:22;;;;;;;61.40;17.33;;;7.70;99.90;;;;;;5074029;28;20212;-75
2024/01/25 07:26:48;;;;;;;67.17;17.70;;;7.60;99.90;;;;;;5074995;28;20223;-76
2024/01/25 07:29:13;;;;;;;68.53;17.47;;;7.60;99.90;;;;;;5074236;28;20185;-74
2024/01/25 07:31:39;;;;;;;58.97;17.00;;;7.70;99.90;;;;;;5072424;28;20639;-76
2024/01/25 07:34:04;;;;;;;71.30;18.07;;;7.60;99.90;;;;;;5074832;28;20168;-75
2024/01/25 07:36:30;;;;;;;88.70;18.03;;;7.60;99.90;;;;;;5074727;28;20164;-75
2024/01/25 07:38:56;;;;;;;59.17;17.40;;;7.60;99.90;;;;;;5074892;28;20628;-75
2024/01/25 07:41:22;;;;;;;82.90;22.70;;;7.50;99.90;;;;;;5075290;28;20164;-75
2024/01/25 07:43:47;;;;;;;92.57;19.87;;;7.70;99.90;;;;;;5073935;28;20295;-76
2024/01/25 07:46:14;;;;;;;83.60;19.80;;;7.80;99.90;;;;;;5073717;28;20263;-77
2024/01/25 07:48:40;;;;;;;69.67;18.27;;;7.90;99.90;;;;;;5073875;28;20172;-79
2024/01/25 07:51:12;;;;;;;59.40;17.80;;;7.90;99.90;;;;;;5074202;28;20177;-78
2024/01/25 07:53:38;;;;;;;69.63;17.30;;;7.80;99.90;;;;;;5074241;28;20192;-78
2024/01/25 07:56:06;;;;;;;54.93;17.87;;;7.80;99.90;;;;;;5073915;28;20169;-77
2024/01/25 07:58:31;;;;;;;59.60;17.10;;;7.80;99.90;;;;;;5073905;28;20241;-77
2024/01/25 08:00:57;;;;;;;52.20;17.03;;;7.60;99.90;;;;;;5074166;28;20578;-78
2024/01/25 08:03:22;;;;;;;64.27;17.63;;;7.50;99.90;;;;;;5072529;28;20204;-79
2024/01/25 08:05:48;;;;;;;51.30;17.43;;;7.60;99.90;;;;;;5073869;28;20173;-78
2024/01/25 08:08:14;;;;;;;50.20;17.63;;;7.60;99.90;;;;;;5073976;28;20522;-78
2024/01/25 08:10:39;;;;;;;54.00;16.20;;;7.60;99.90;;;;;;5074075;28;20164;-78
2024/01/25 08:13:05;;;;;;;51.63;17.70;;;7.60;99.90;;;;;;5073665;28;20176;-78
2024/01/25 08:15:30;;;;;;;55.70;17.83;;;7.70;99.90;;;;;;5072090;28;20165;-77
2024/01/25 08:17:56;;;;;;;44.70;16.37;;;7.70;99.90;;;;;;5073890;28;20176;-77
2024/01/25 08:20:21;;;;;;;45.30;15.03;;;7.70;99.90;;;;;;5074072;28;20165;-78
2024/01/25 08:22:47;;;;;;;72.33;16.03;;;7.70;99.90;;;;;;5074099;28;20235;-78
2024/01/25 08:25:13;;;;;;;46.57;14.80;;;7.60;99.90;;;;;;5073159;28;20249;-79
2024/01/25 08:27:39;;;;;;;50.57;16.90;;;7.60;99.90;;;;;;5073731;28;20525;-77
2024/01/25 08:30:05;;;;;;;49.87;16.47;;;7.60;99.90;;;;;;5075006;28;20641;-77
2024/01/25 08:32:31;;;;;;;51.83;15.93;;;7.70;99.90;;;;;;5094836;28;20180;-77
2024/01/25 08:34:57;;;;;;;48.03;15.77;;;7.70;99.90;;;;;;5098629;28;20644;-78
2024/01/25 08:37:22;;;;;;;46.73;16.63;;;7.70;99.90;;;;;;5104700;28;20520;-78
2024/01/25 08:39:50;;;;;;;42.57;16.80;;;7.80;99.90;;;;;;5091924;28;20168;-74
2024/01/25 08:42:17;;;;;;;43.63;16.93;;;7.90;99.90;;;;;;5109237;28;20177;-75
2024/01/25 08:44:48;;;;;;;49.30;16.60;;;8.00;99.90;;;;;;5080916;28;20179;-76
2024/01/25 08:47:17;;;;;;;41.40;17.33;;;8.10;99.90;;;;;;5104642;28;20176;-75
2024/01/25 08:49:42;;;;;;;42.13;16.13;;;8.10;99.90;;;;;;5105155;28;20176;-74
2024/01/25 08:52:09;;;;;;;48.63;16.03;;;8.00;99.90;;;;;;5098180;28;20176;-75
2024/01/25 08:54:35;;;;;;;48.97;17.50;;;7.90;99.90;;;;;;5109606;28;20190;-75
2024/01/25 08:57:01;;;;;;;42.47;15.67;;;8.00;99.90;;;;;;5097050;28;20174;-76
2024/01/25 08:59:28;;;;;;;38.13;15.90;;;8.00;99.90;;;;;;5103361;28;20176;-77
2024/01/25 09:01:53;;;;;;;38.73;14.33;;;7.90;99.90;;;;;;5085177;28;20181;-79
2024/01/25 09:04:19;;;;;;;29.10;13.63;;;8.00;99.90;;;;;;5094882;28;20218;-78
2024/01/25 09:06:44;;;;;;;39.30;15.17;;;8.00;99.90;;;;;;5108406;28;20569;-76
2024/01/25 09:09:10;;;;;;;32.90;14.07;;;8.10;99.90;;;;;;5097627;28;20162;-76
2024/01/25 09:11:36;;;;;;;40.37;14.17;;;8.10;99.90;;;;;;5101080;28;20195;-77
2024/01/25 09:14:02;;;;;;;37.80;14.83;;;8.10;99.90;;;;;;5105762;28;20171;-75
2024/01/25 09:16:27;;;;;;;37.90;14.00;;;8.10;99.90;;;;;;5094582;28;20172;-75
2024/01/25 09:18:53;;;;;;;38.80;14.50;;;8.10;99.90;;;;;;5107373;28;20214;-77
2024/01/25 09:21:18;;;;;;;39.03;14.63;;;8.30;99.90;;;;;;5101651;28;20178;-73
2024/01/25 09:23:44;;;;;;;46.17;15.30;;;8.20;99.90;;;;;;5098855;28;20218;-76
2024/01/25 09:26:09;;;;;;;39.83;15.07;;;8.30;99.90;;;;;;5108319;28;20254;-75
2024/01/25 09:28:35;;;;;;;38.10;14.60;;;8.60;99.90;;;;;;5096248;28;20176;-76
2024/01/25 09:31:01;;;;;;;38.90;15.43;;;8.80;99.90;;;;;;5106299;27;20695;-76
2024/01/25 09:33:26;;;;;;;39.33;15.77;;;8.90;99.90;;;;;;5102308;28;20211;-75
2024/01/25 09:35:52;;;;;;;36.63;15.77;;;8.90;99.90;;;;;;5099245;28;20168;-74
2024/01/25 09:38:17;;;;;;;32.63;15.23;;;8.90;99.90;;;;;;5108835;28;20258;-74
2024/01/25 09:40:43;;;;;;;44.07;17.23;;;9.10;99.90;;;;;;5095842;28;20356;-75
2024/01/25 09:43:09;;;;;;;45.27;17.43;;;9.10;99.90;;;;;;5105515;28;20206;-76
2024/01/25 09:45:34;;;;;;;41.50;16.67;;;9.20;99.90;;;;;;5103152;28;20254;-75
2024/01/25 09:48:04;;;;;;;46.67;18.77;;;9.40;99.90;;;;;;5097728;28;20258;-76
2024/01/25 09:50:33;;;;;;;52.03;18.67;;;9.40;99.90;;;;;;5108950;28;20160;-75
2024/01/25 09:52:59;;;;;;;44.53;18.87;;;9.40;99.90;;;;;;5097978;28;20271;-75
2024/01/25 09:55:26;;;;;;;47.60;18.83;;;9.50;99.90;;;;;;5102169;28;20266;-74
2024/01/25 09:57:56;;;;;;;49.67;19.43;;;9.60;99.90;;;;;;5104989;28;20175;-74
2024/01/25 10:00:22;;;;;;;52.67;19.77;;;9.80;99.90;;;;;;5095410;28;20252;-75
2024/01/25 10:02:51;;;;;;;48.67;20.10;;;9.80;99.90;;;;;;5107745;28;20546;-76
2024/01/25 10:05:17;;;;;;;55.03;20.83;;;9.80;99.90;;;;;;5100593;28;20647;-74
2024/01/25 10:07:45;;;;;;;48.53;19.67;;;10.00;99.90;;;;;;5100096;28;20168;-75
2024/01/25 10:10:12;;;;;;;52.50;19.60;;;10.20;99.90;;;;;;5105717;28;20172;-74
2024/01/25 10:12:40;;;;;;;54.07;20.67;;;10.30;99.90;;;;;;5095484;28;20178;-74
2024/01/25 10:15:06;;;;;;;55.63;21.33;;;10.40;99.90;;;;;;5105355;28;20164;-75
2024/01/25 10:17:32;;;;;;;51.57;20.63;;;10.40;99.90;;;;;;5102149;28;20189;-74
2024/01/25 10:19:57;;;;;;;53.50;20.23;;;10.50;99.90;;;;;;5097740;28;20171;-74
2024/01/25 10:22:23;;;;;;;57.33;20.67;;;10.50;99.90;;;;;;5108725;28;20199;-75
2024/01/25 10:24:53;;;;;;;59.13;20.63;;;10.70;99.90;;;;;;5096183;28;20170;-74
2024/01/25 10:27:19;;;;;;;58.90;21.40;;;10.70;99.90;;;;;;5103386;28;20164;-75
2024/01/25 10:29:45;;;;;;;56.47;20.03;;;10.70;99.90;;;;;;5104465;28;20179;-74
2024/01/25 10:32:10;;;;;;;49.50;19.73;;;10.60;99.90;;;;;;5081059;28;20243;-73
2024/01/25 10:34:37;;;;;;;58.37;20.40;;;10.70;99.90;;;;;;5080624;28;20591;-75
2024/01/25 10:37:07;;;;;;;51.97;19.83;;;10.50;99.90;;;;;;5103806;28;20482;-74
2024/01/25 10:39:33;;;;;;;48.43;19.10;;;10.60;99.90;;;;;;5100451;28;20168;-74
2024/01/25 10:42:00;;;;;;;51.90;20.23;;;10.60;99.90;;;;;;5102543;28;20179;-73
2024/01/25 10:44:26;;;;;;;48.60;19.67;;;10.70;99.90;;;;;;5094666;28;20191;-77
2024/01/25 10:46:54;;;;;;;56.87;20.00;;;10.70;99.90;;;;;;5104487;28;20164;-77
2024/01/25 10:49:20;;;;;;;42.37;15.93;;;10.70;99.90;;;;;;5099805;28;20203;-78
2024/01/25 10:51:46;;;;;;;45.13;17.70;;;10.80;99.90;;;;;;5098974;28;20203;-79
2024/01/25 10:54:14;;;;;;;51.40;17.57;;;10.60;99.90;;;;;;5107107;28;20191;-74
2024/01/25 10:56:42;;;;;;;50.93;16.27;;;10.70;99.90;;;;;;5094811;28;20183;-79
2024/01/25 10:59:08;;;;;;;48.43;16.47;;;10.80;99.90;;;;;;5104088;28;20582;-78
2024/01/25 11:01:35;;;;;;;51.90;17.20;;;10.90;99.90;;;;;;5101915;28;20182;-77
2024/01/25 11:04:00;;;;;;;41.30;15.83;;;11.10;99.90;;;;;;5096690;28;20670;-76
2024/01/25 11:06:27;;;;;;;42.97;15.27;;;11.20;99.90;;;;;;5107221;28;20187;-78
2024/01/25 11:09:07;;;;;;;42.13;15.40;;;11.20;99.90;;;;;;5100950;28;20175;-79
2024/01/25 11:11:32;;;;;;;41.70;14.63;;;11.20;99.90;;;;;;5095732;28;20156;-80
2024/01/25 11:13:59;;;;;;;41.83;14.93;;;11.20;99.90;;;;;;5105262;28;20181;-76
2024/01/25 11:16:33;;;;;;;37.67;14.23;;;11.20;99.90;;;;;;5093090;28;20176;-81
2024/01/25 11:19:05;;;;;;;35.90;13.60;;;11.00;99.90;;;;;;5105085;28;20190;-74
2024/01/25 11:21:50;;;;;;;35.03;14.63;;;10.90;99.90;;;;;;5101498;28;20251;-74
2024/01/25 11:24:16;;;;;;;43.97;13.70;;;10.80;99.90;;;;;;5097439;28;20298;-74
2024/01/25 11:26:45;;;;;;;37.70;13.63;;;10.90;99.90;;;;;;5088044;28;20309;-77
2024/01/25 11:29:20;;;;;;;41.70;16.75;;;10.90;99.90;;;;;;5101301;28;20408;-73
2024/01/25 11:31:47;;;;;;;37.27;14.63;;;11.20;99.90;;;;;;5099960;28;20313;-75
2024/01/25 11:34:17;;;;;;;38.90;13.80;;;11.30;99.90;;;;;;5110896;28;20175;-77
2024/01/25 11:36:44;;;;;;;41.57;14.03;;;11.30;99.90;;;;;;5091095;28;20175;-79
2024/01/25 11:39:11;;;;;;;36.87;13.70;;;11.20;99.90;;;;;;5107171;28;20576;-76
2024/01/25 11:41:37;;;;;;;35.93;13.33;;;11.00;99.90;;;;;;5094061;28;20186;-76
2024/01/25 11:44:06;;;;;;;41.87;14.00;;;11.00;99.90;;;;;;5109458;28;20255;-76
2024/01/25 11:46:31;;;;;;;40.00;13.90;;;11.10;99.90;;;;;;5094474;28;20188;-76
2024/01/25 11:49:00;;;;;;;37.40;13.27;;;11.10;99.90;;;;;;5099882;28;20191;-80
2024/01/25 11:51:25;;;;;;;33.77;13.43;;;11.20;99.90;;;;;;5102423;28;20179;-78
2024/01/25 11:53:51;;;;;;;42.10;14.30;;;11.20;99.90;;;;;;5093630;28;20547;-77
2024/01/25 11:56:29;;;;;;;35.60;14.17;;;11.30;99.90;;;;;;5094544;28;20174;-78
2024/01/25 11:58:58;;;;;;;37.03;14.53;;;11.40;99.90;;;;;;5095167;28;20171;-79
2024/01/25 12:01:28;;;;;;;30.17;13.47;;;11.30;99.90;;;;;;5094012;28;20166;-79
2024/01/25 12:03:54;;;;;;;31.17;12.53;;;11.50;99.90;;;;;;5094400;28;20191;-78
2024/01/25 12:06:19;;;;;;;30.23;12.03;;;11.60;99.90;;;;;;5094031;28;20171;-75
2024/01/25 12:08:48;;;;;;;30.83;12.23;;;11.50;99.90;;;;;;5093735;28;20182;-79
2024/01/25 12:11:14;;;;;;;35.42;14.80;;;11.40;99.90;;;;;;5091534;28;20402;-77
2024/01/25 12:13:41;;;;;;;42.00;13.93;;;11.30;99.90;;;;;;5093383;28;20247;-76
2024/01/25 12:16:08;;;;;;;34.43;13.03;;;11.20;99.90;;;;;;5092398;28;20176;-76
2024/01/25 12:18:37;;;;;;;43.77;13.27;;;11.10;99.90;;;;;;5093914;28;20172;-76
2024/01/25 12:21:05;;;;;;;34.57;12.90;;;11.10;99.90;;;;;;5093599;28;20176;-75
2024/01/25 12:23:40;;;;;;;32.07;13.00;;;11.00;99.90;;;;;;5094133;28;20219;-75
2024/01/25 12:26:08;;;;;;;36.73;13.57;;;11.10;99.90;;;;;;5093602;28;20167;-74
2024/01/25 12:28:33;;;;;;;37.90;13.80;;;11.10;99.90;;;;;;5094460;28;20172;-80
2024/01/25 12:31:04;;;;;;;38.33;13.00;;;11.00;99.90;;;;;;5093029;28;20284;-77
2024/01/25 12:33:30;;;;;;;32.73;13.93;;;11.10;99.90;;;;;;5092711;28;20172;-79